Time;durP1;ratioP1;P1;durP2;ratioP2;P2;SDS_P1;SDS_P2;PMS_P1;PMS_P2;Temp;Humidity;BMP_temperature;BMP_pressure;BME280_temperature;BME280_humidity;BME280_pressure;Samples;Min_cycle;Max_cycle;Signal;HPM_P1;HPM_P2
2021/12/19 00:00:58;;;;;;;3.50;3.20;;;;;;;4.06;82.34;100676.94;2619454;54;20026;-68
2021/12/19 00:03:52;;;;;;;3.63;2.80;;;;;;;3.95;82.14;100679.44;2619193;54;20029;-67
2021/12/19 00:09:07;;;;;;;4.15;3.40;;;;;;;3.93;82.56;100676.13;2624585;54;20077;-66
2021/12/19 00:11:37;;;;;;;3.20;2.90;;;;;;;4.02;82.14;100679.88;2625587;54;20026;-67
2021/12/19 00:14:07;;;;;;;3.05;2.75;;;;;;;3.99;81.90;100678.31;2622638;47;20023;-65
2021/12/19 00:16:37;;;;;;;3.30;3.00;;;;;;;4.04;82.00;100675.38;2619011;54;20034;-66
2021/12/19 00:19:07;;;;;;;4.22;3.30;;;;;;;4.11;82.14;100669.59;2619426;39;20437;-66
2021/12/19 00:21:40;;;;;;;4.47;3.70;;;;;;;4.12;82.19;100668.69;2618883;54;20038;-66
2021/12/19 00:24:10;;;;;;;4.43;3.88;;;;;;;4.15;81.90;100668.47;2619269;46;20800;-66
2021/12/19 00:26:40;;;;;;;3.55;3.25;;;;;;;4.17;82.15;100671.81;2618768;54;20027;-65
2021/12/19 00:29:10;;;;;;;4.72;3.85;;;;;;;4.15;81.78;100657.97;2618478;54;20022;-66
2021/12/19 00:31:43;;;;;;;4.40;4.00;;;;;;;4.18;81.75;100654.34;2618919;54;20045;-65
2021/12/19 00:34:13;;;;;;;4.00;3.58;;;;;;;4.17;81.98;100650.88;2618346;47;20033;-65
2021/12/19 00:36:46;;;;;;;4.30;3.88;;;;;;;4.16;81.68;100643.97;2619006;54;20042;-66
2021/12/19 00:39:15;;;;;;;4.57;4.03;;;;;;;4.13;81.42;100640.72;2618780;54;20034;-66
2021/12/19 00:41:52;;;;;;;4.43;3.42;;;;;;;4.09;81.63;100640.09;2618688;39;20446;-65
2021/12/19 00:44:24;;;;;;;2.53;2.33;;;;;;;4.06;81.22;100639.47;2619580;54;20049;-66
2021/12/19 00:47:04;;;;;;;3.03;2.70;;;;;;;3.93;81.76;100642.09;2619201;54;20022;-67
2021/12/19 00:49:34;;;;;;;3.63;2.92;;;;;;;3.98;81.50;100643.44;2619675;39;20560;-66
2021/12/19 00:52:06;;;;;;;4.22;3.85;;;;;;;3.97;81.73;100647.00;2618827;54;20142;-66
2021/12/19 00:54:36;;;;;;;4.05;3.50;;;;;;;4.03;81.66;100637.06;2619205;54;20026;-66
2021/12/19 00:57:06;;;;;;;5.25;3.60;;;;;;;4.00;81.91;100643.34;2619156;54;20034;-66
2021/12/19 00:59:36;;;;;;;4.05;3.65;;;;;;;4.05;81.75;100641.25;2618438;54;20038;-66
2021/12/19 01:02:06;;;;;;;3.83;3.42;;;;;;;4.10;81.78;100635.69;2618866;39;20418;-66
2021/12/19 01:04:35;;;;;;;5.82;3.50;;;;;;;4.11;81.59;100629.50;2618576;47;20030;-66
2021/12/19 01:07:08;;;;;;;3.67;3.38;;;;;;;4.15;81.98;100623.13;2620123;31;20479;-67
2021/12/19 01:09:38;;;;;;;3.58;3.13;;;;;;;4.20;82.08;100621.88;2619040;47;20046;-66
2021/12/19 01:12:10;;;;;;;3.30;2.97;;;;;;;4.27;81.73;100619.66;2618602;54;20078;-65
2021/12/19 01:14:40;;;;;;;3.65;3.33;;;;;;;4.29;81.69;100614.31;2617991;47;20025;-65
2021/12/19 01:17:10;;;;;;;3.88;2.95;;;;;;;4.43;81.19;100616.78;2620445;54;20030;-66
2021/12/19 01:19:40;;;;;;;3.13;2.70;;;;;;;4.36;80.76;100621.59;2621072;54;20026;-66
2021/12/19 01:22:12;;;;;;;3.00;2.70;;;;;;;4.30;80.81;100616.81;2620065;54;20030;-65
2021/12/19 01:24:41;;;;;;;3.60;3.30;;;;;;;4.21;80.88;100618.31;2619129;54;20534;-65
2021/12/19 01:27:11;;;;;;;3.67;2.58;;;;;;;4.29;81.23;100619.56;2618745;54;20065;-65
2021/12/19 01:29:41;;;;;;;3.85;2.92;;;;;;;4.32;81.01;100625.38;2618628;54;20045;-66
2021/12/19 01:32:11;;;;;;;1.73;1.63;;;;;;;4.32;80.82;100621.94;2618444;54;20562;-66
2021/12/19 01:34:40;;;;;;;2.30;2.10;;;;;;;4.24;80.62;100622.47;2618603;54;20031;-66
2021/12/19 01:37:13;;;;;;;2.22;2.03;;;;;;;4.31;80.91;100623.72;2618618;54;20058;-65
2021/12/19 01:39:42;;;;;;;3.60;2.10;;;;;;;4.16;80.47;100624.78;2618007;54;20030;-65
2021/12/19 01:42:14;;;;;;;1.63;1.52;;;;;;;4.17;80.24;100627.31;2618444;54;20027;-65
2021/12/19 01:44:44;;;;;;;1.38;1.27;;;;;;;4.27;80.49;100629.28;2618586;47;20038;-65
2021/12/19 01:47:14;;;;;;;2.42;1.75;;;;;;;4.27;79.86;100626.66;2618340;54;20022;-65
2021/12/19 01:49:44;;;;;;;1.52;1.42;;;;;;;4.27;80.36;100622.25;2618374;46;20039;-66
2021/12/19 01:52:16;;;;;;;1.60;1.50;;;;;;;4.28;80.07;100620.47;2617975;54;20034;-65
2021/12/19 01:54:46;;;;;;;1.40;1.30;;;;;;;4.31;80.41;100621.09;2618624;54;20577;-65
2021/12/19 01:57:16;;;;;;;1.70;1.60;;;;;;;4.34;80.59;100609.59;2618544;54;20037;-66
2021/12/19 01:59:46;;;;;;;3.58;1.90;;;;;;;4.34;80.66;100614.81;2617638;47;20061;-65
2021/12/19 02:02:16;;;;;;;2.15;1.88;;;;;;;4.32;80.28;100616.69;2618933;39;20461;-65
2021/12/19 02:04:45;;;;;;;1.63;1.25;;;;;;;4.34;80.30;100614.81;2618572;54;20261;-66
2021/12/19 02:07:18;;;;;;;2.00;1.80;;;;;;;4.47;80.64;100607.75;2618942;46;20058;-66
2021/12/19 02:09:48;;;;;;;2.13;1.90;;;;;;;4.48;80.29;100598.97;2618293;54;20038;-66
2021/12/19 02:12:17;;;;;;;2.08;1.88;;;;;;;4.49;80.09;100600.66;2618235;54;20086;-65
2021/12/19 02:14:47;;;;;;;1.95;1.83;;;;;;;4.46;79.99;100599.06;2618392;54;20534;-66
2021/12/19 02:17:16;;;;;;;1.98;1.80;;;;;;;4.46;80.31;100598.25;2618597;39;20382;-68
2021/12/19 02:19:47;;;;;;;2.53;1.80;;;;;;;4.45;80.43;100589.56;2617858;54;20125;-65
2021/12/19 02:22:19;;;;;;;2.97;2.20;;;;;;;4.45;80.56;100586.94;2617449;54;20041;-66
2021/12/19 02:24:48;;;;;;;2.85;2.20;;;;;;;4.44;80.41;100589.66;2618466;54;20086;-65
2021/12/19 02:27:18;;;;;;;2.17;1.98;;;;;;;4.44;81.05;100577.38;2618428;54;20038;-66
2021/12/19 02:29:48;;;;;;;2.33;2.13;;;;;;;4.55;81.01;100574.00;2618281;54;20042;-65
2021/12/19 02:32:17;;;;;;;2.72;2.35;;;;;;;4.63;80.76;100569.03;2618430;54;20074;-67
2021/12/19 02:34:49;;;;;;;2.80;2.50;;;;;;;4.62;81.19;100566.56;2618263;54;20526;-65
2021/12/19 02:37:50;;;;;;;2.83;2.60;;;;;;;4.72;81.25;100557.91;2617826;54;20048;-65
2021/12/19 02:48:30;;;;;;;3.88;3.35;;;;;;;4.92;80.69;100547.75;2617524;54;20552;-66
2021/12/19 02:51:01;;;;;;;3.38;3.08;;;;;;;4.97;80.67;100548.22;2618597;54;20038;-67
2021/12/19 02:53:36;;;;;;;3.50;3.20;;;;;;;5.03;80.56;100555.66;2618137;54;20035;-65
2021/12/19 02:56:08;;;;;;;5.50;3.33;;;;;;;5.03;80.56;100554.81;2618054;54;20030;-64
2021/12/19 02:58:40;;;;;;;4.50;3.55;;;;;;;5.03;80.67;100553.03;2618461;54;20030;-66
2021/12/19 03:01:12;;;;;;;5.15;3.33;;;;;;;5.05;80.49;100551.09;2617111;54;20050;-67
2021/12/19 03:03:42;;;;;;;4.07;3.55;;;;;;;5.04;80.01;100549.44;2618296;39;20132;-66
2021/12/19 03:06:11;;;;;;;4.63;3.67;;;;;;;5.00;80.25;100549.78;2618391;54;20069;-65
2021/12/19 03:08:47;;;;;;;4.40;3.92;;;;;;;5.00;80.34;100547.16;2618446;54;20577;-65
2021/12/19 03:11:53;;;;;;;4.80;4.30;;;;;;;4.86;79.88;100538.56;2617568;54;20529;-66
2021/12/19 03:19:44;;;;;;;5.13;3.72;;;;;;;4.89;80.30;100546.16;2618372;54;20045;-66
2021/12/19 03:22:13;;;;;;;5.55;4.30;;;;;;;4.89;80.85;100548.78;2618683;54;20035;-66
2021/12/19 03:24:45;;;;;;;5.60;4.40;;;;;;;4.86;80.34;100554.28;2618445;54;20546;-64
2021/12/19 03:27:15;;;;;;;3.70;3.40;;;;;;;4.91;80.78;100557.38;2618009;51;20039;-65
2021/12/19 03:29:45;;;;;;;3.70;3.40;;;;;;;4.83;80.07;100543.19;2618853;54;20030;-65
2021/12/19 03:32:14;;;;;;;3.47;3.17;;;;;;;4.81;80.48;100540.66;2618449;54;20081;-65
2021/12/19 03:34:44;;;;;;;3.92;3.47;;;;;;;4.90;80.36;100544.41;2618755;54;20034;-65
2021/12/19 03:37:14;;;;;;;4.65;4.03;;;;;;;4.97;80.56;100535.13;2618479;46;20061;-66
2021/12/19 03:39:56;;;;;;;4.72;3.55;;;;;;;5.02;80.56;100529.53;2618948;54;20130;-65
2021/12/19 03:42:27;;;;;;;3.20;2.88;;;;;;;5.04;79.97;100519.78;2618651;54;20069;-65
2021/12/19 03:44:57;;;;;;;3.75;2.80;;;;;;;4.97;79.56;100517.59;2618846;54;20046;-65
2021/12/19 03:47:27;;;;;;;3.03;2.78;;;;;;;4.82;78.80;100525.78;2619073;54;20576;-65
2021/12/19 03:49:56;;;;;;;3.03;2.72;;;;;;;4.71;79.44;100513.47;2619827;54;20122;-65
2021/12/19 03:52:27;;;;;;;3.22;2.90;;;;;;;4.71;80.18;100510.84;2619054;54;20542;-67
2021/12/19 03:54:59;;;;;;;3.38;2.85;;;;;;;4.83;80.09;100523.06;2618821;54;20142;-66
2021/12/19 03:57:29;;;;;;;2.92;2.72;;;;;;;4.87;80.14;100519.25;2618827;54;20038;-66
2021/12/19 03:59:58;;;;;;;3.42;3.13;;;;;;;4.90;79.93;100523.44;2618618;54;20074;-66
2021/12/19 04:02:29;;;;;;;3.50;3.20;;;;;;;4.81;79.97;100522.31;2617741;54;20031;-67
2021/12/19 04:05:00;;;;;;;3.97;3.58;;;;;;;4.88;79.99;100522.72;2618575;54;20018;-66
2021/12/19 04:07:31;;;;;;;4.10;3.28;;;;;;;4.87;79.94;100527.13;2618518;54;20026;-67
2021/12/19 04:10:03;;;;;;;2.50;2.30;;;;;;;4.79;80.16;100519.00;2618202;54;20042;-65
2021/12/19 04:12:33;;;;;;;2.80;2.60;;;;;;;4.84;80.12;100511.63;2617899;54;20049;-67
2021/12/19 04:15:03;;;;;;;2.90;2.70;;;;;;;4.87;79.67;100507.94;2618719;54;20054;-66
2021/12/19 04:17:33;;;;;;;2.40;2.20;;;;;;;4.77;79.43;100510.38;2617890;51;20118;-66
2021/12/19 04:20:02;;;;;;;3.10;2.83;;;;;;;4.62;79.60;100509.75;2618114;47;20023;-66
2021/12/19 04:22:32;;;;;;;2.40;2.15;;;;;;;4.56;79.71;100499.72;2618375;54;20561;-66
2021/12/19 04:25:04;;;;;;;1.95;1.85;;;;;;;4.54;79.82;100504.25;2617870;51;20593;-67
2021/12/19 04:27:34;;;;;;;2.38;2.05;;;;;;;4.60;80.13;100503.78;2618282;54;20035;-66
2021/12/19 04:30:06;;;;;;;2.13;1.90;;;;;;;4.61;79.81;100505.47;2618242;54;20034;-65
2021/12/19 04:32:40;;;;;;;1.80;1.70;;;;;;;4.47;79.90;100500.41;2618149;54;20034;-66
2021/12/19 04:35:11;;;;;;;1.75;1.65;;;;;;;4.35;79.66;100503.91;2625404;54;20031;-66
2021/12/19 04:38:16;;;;;;;1.60;1.50;;;;;;;4.32;79.66;100498.88;2626283;54;20034;-65
2021/12/19 04:40:55;;;;;;;2.67;2.33;;;;;;;4.36;80.16;100495.09;2619163;54;20030;-65
2021/12/19 04:54:45;;;;;;;3.67;3.38;;;;;;;4.62;80.07;100493.22;2619095;54;20038;-66
2021/12/19 04:57:30;;;;;;;4.40;3.90;;;;;;;4.59;80.04;100483.78;2618860;47;20042;-65
2021/12/19 05:00:04;;;;;;;3.53;3.22;;;;;;;4.64;80.17;100488.69;2618916;54;20038;-66
2021/12/19 05:02:45;;;;;;;4.15;3.75;;;;;;;4.63;80.21;100479.16;2619930;54;20607;-65
2021/12/19 05:05:44;;;;;;;4.35;3.95;;;;;;;4.74;80.61;100473.97;2622858;39;20568;-66
2021/12/19 05:16:22;;;;;;;5.07;4.38;;;;;;;4.72;79.34;100475.84;2619590;54;20038;-65
2021/12/19 05:18:54;;;;;;;5.13;4.63;;;;;;;4.67;79.55;100470.94;2618670;54;20081;-65
2021/12/19 05:21:27;;;;;;;5.50;5.00;;;;;;;4.77;79.88;100471.09;2618367;54;20566;-66
2021/12/19 05:24:20;;;;;;;6.18;5.60;;;;;;;4.85;79.66;100462.66;2618918;54;20030;-65
2021/12/19 05:26:52;;;;;;;5.90;5.38;;;;;;;4.81;79.19;100463.84;2620548;54;20038;-66
2021/12/19 05:29:24;;;;;;;6.80;5.35;;;;;;;4.85;79.48;100460.03;2620709;54;20066;-66
2021/12/19 05:31:53;;;;;;;6.28;5.68;;;;;;;4.94;79.50;100462.00;2621302;54;20038;-65
2021/12/19 05:34:23;;;;;;;7.25;6.47;;;;;;;4.99;79.50;100449.38;2619077;51;20022;-65
2021/12/19 05:45:20;;;;;;;10.50;9.00;;;;;;;5.01;79.02;100430.88;2618565;54;20090;-64
2021/12/19 05:47:51;;;;;;;8.35;7.53;;;;;;;4.98;79.22;100434.59;2618382;54;20057;-64
2021/12/19 05:50:23;;;;;;;9.90;8.52;;;;;;;4.91;79.34;100428.16;2618038;54;20038;-65
2021/12/19 05:52:53;;;;;;;8.70;7.75;;;;;;;4.83;78.98;100428.72;2618781;54;20037;-65
2021/12/19 05:55:23;;;;;;;10.27;9.18;;;;;;;4.84;79.25;100421.69;2618635;54;20030;-65
2021/12/19 05:57:53;;;;;;;9.52;8.38;;;;;;;4.84;79.41;100419.91;2618892;39;20613;-65
2021/12/19 06:00:25;;;;;;;10.68;9.40;;;;;;;4.91;79.61;100412.41;2618555;54;20030;-65
2021/12/19 06:02:55;;;;;;;12.82;9.65;;;;;;;4.94;79.06;100415.66;2618302;54;20545;-66
2021/12/19 06:05:25;;;;;;;11.63;9.00;;;;;;;5.01;79.80;100412.53;2618386;54;20542;-65
2021/12/19 06:07:54;;;;;;;11.15;9.68;;;;;;;5.00;79.25;100406.47;2620090;54;20534;-66
2021/12/19 06:10:28;;;;;;;10.57;8.93;;;;;;;5.02;79.04;100406.34;2621114;54;20037;-66
2021/12/19 06:12:59;;;;;;;11.30;9.32;;;;;;;4.99;79.18;100409.22;2620954;54;20081;-66
2021/12/19 06:15:31;;;;;;;12.27;9.82;;;;;;;5.07;79.09;100406.84;2620856;54;20106;-66
2021/12/19 06:18:01;;;;;;;11.48;9.95;;;;;;;5.12;78.75;100407.31;2618747;54;20585;-67
2021/12/19 06:20:32;;;;;;;13.27;10.30;;;;;;;5.15;78.61;100389.56;2618534;54;20561;-66
2021/12/19 06:23:02;;;;;;;10.60;8.88;;;;;;;5.13;78.29;100395.88;2618311;54;20057;-66
2021/12/19 06:25:32;;;;;;;11.73;9.45;;;;;;;5.17;78.91;100402.53;2618892;54;20038;-66
2021/12/19 06:28:01;;;;;;;12.52;10.55;;;;;;;5.21;78.52;100396.94;2619456;54;20033;-66
2021/12/19 06:30:34;;;;;;;13.07;10.63;;;;;;;5.22;78.25;100384.66;2618222;54;20032;-65
2021/12/19 06:33:03;;;;;;;12.73;10.93;;;;;;;5.21;78.31;100386.44;2618071;54;20033;-65
2021/12/19 06:35:33;;;;;;;14.43;11.23;;;;;;;5.11;78.41;100393.38;2618497;54;20569;-65
2021/12/19 06:38:03;;;;;;;13.65;11.27;;;;;;;5.02;78.70;100388.84;2618337;54;20038;-65
2021/12/19 06:40:33;;;;;;;12.63;9.93;;;;;;;5.01;78.65;100389.78;2617732;51;20026;-66
2021/12/19 06:43:03;;;;;;;13.18;10.25;;;;;;;5.03;78.18;100384.44;2618315;54;20061;-66
2021/12/19 06:45:35;;;;;;;13.77;10.88;;;;;;;5.04;78.31;100391.34;2617664;54;20057;-66
2021/12/19 06:48:05;;;;;;;13.93;11.25;;;;;;;5.11;78.66;100400.41;2618167;54;20061;-66
2021/12/19 06:50:34;;;;;;;15.10;11.73;;;;;;;5.10;78.51;100394.34;2617574;47;20041;-66
2021/12/19 06:53:04;;;;;;;15.23;11.95;;;;;;;5.16;78.60;100388.59;2618186;54;20034;-66
2021/12/19 06:55:34;;;;;;;14.50;11.18;;;;;;;5.20;78.54;100400.53;2618513;54;20038;-66
2021/12/19 06:58:03;;;;;;;15.68;11.77;;;;;;;5.15;78.35;100402.69;2618183;54;20031;-65
2021/12/19 07:00:35;;;;;;;16.20;12.23;;;;;;;5.10;78.09;100398.72;2618007;54;20077;-66
2021/12/19 07:03:05;;;;;;;17.50;12.68;;;;;;;5.09;78.64;100403.13;2618195;54;20141;-65
2021/12/19 07:05:35;;;;;;;15.30;12.40;;;;;;;5.07;78.50;100391.94;2618216;54;20037;-65
2021/12/19 07:08:05;;;;;;;12.60;9.02;;;;;;;4.98;78.22;100387.41;2618350;54;20069;-65
2021/12/19 07:10:35;;;;;;;13.95;10.35;;;;;;;4.90;78.30;100384.56;2618052;54;20042;-66
2021/12/19 07:13:05;;;;;;;13.82;10.43;;;;;;;4.99;78.04;100385.63;2617978;54;20070;-65
2021/12/19 07:15:37;;;;;;;14.65;10.77;;;;;;;5.12;78.02;100394.22;2617859;54;20057;-65
2021/12/19 07:18:07;;;;;;;12.48;8.70;;;;;;;5.07;77.15;100404.22;2617876;54;20042;-65
2021/12/19 07:20:41;;;;;;;11.75;9.13;;;;;;;4.93;77.65;100403.47;2618621;54;20126;-65
2021/12/19 07:23:11;;;;;;;;;;;;;;;4.93;77.92;100398.22;2618336;54;20030;-67
2021/12/19 07:25:41;;;;;;;12.15;9.77;;;;;;;5.03;78.03;100394.94;2618450;54;19954;-65
2021/12/19 07:28:12;;;;;;;19.73;14.07;;;;;;;5.10;77.83;100401.34;2617816;47;20119;-65
2021/12/19 07:30:45;;;;;;;13.95;10.68;;;;;;;5.13;77.77;100406.34;2617632;54;20045;-65
2021/12/19 07:33:14;;;;;;;18.77;12.38;;;;;;;5.13;77.64;100398.50;2618062;54;20026;-65
2021/12/19 07:35:47;;;;;;;17.40;12.52;;;;;;;5.12;77.63;100399.44;2618298;54;20094;-65
2021/12/19 07:38:28;;;;;;;14.27;10.63;;;;;;;5.17;77.71;100403.38;2618240;54;20557;-66
2021/12/19 07:40:59;;;;;;;15.63;10.68;;;;;;;5.18;77.41;100402.44;2617494;47;20039;-65
2021/12/19 07:43:29;;;;;;;13.35;10.60;;;;;;;5.26;77.16;100399.19;2618070;54;20043;-65
2021/12/19 07:46:01;;;;;;;16.45;12.02;;;;;;;5.32;77.09;100400.53;2617421;54;20038;-66
2021/12/19 07:48:30;;;;;;;12.90;10.55;;;;;;;5.31;76.97;100393.63;2617371;54;20077;-66
2021/12/19 07:51:00;;;;;;;14.93;11.27;;;;;;;5.35;77.03;100387.19;2617666;54;20031;-66
2021/12/19 07:53:30;;;;;;;14.80;11.63;;;;;;;5.37;76.81;100393.97;2617929;54;20046;-66
2021/12/19 07:56:00;;;;;;;15.77;12.10;;;;;;;5.39;76.50;100388.63;2618146;54;20558;-66
2021/12/19 07:58:29;;;;;;;15.60;12.90;;;;;;;5.37;76.23;100388.72;2618202;54;20557;-66
2021/12/19 08:01:02;;;;;;;14.82;12.50;;;;;;;5.45;76.06;100378.44;2617867;54;20558;-65
2021/12/19 08:03:31;;;;;;;17.83;13.98;;;;;;;5.49;76.04;100381.66;2618349;54;20078;-66
2021/12/19 08:06:01;;;;;;;15.88;12.65;;;;;;;5.50;76.16;100370.22;2618291;54;20030;-67
2021/12/19 08:08:33;;;;;;;24.15;20.48;;;;;;;5.51;76.26;100374.53;2618283;54;20043;-66
2021/12/19 08:13:45;;;;;;;14.20;11.52;;;;;;;5.47;76.33;100375.72;2618901;39;20263;-66
2021/12/19 08:16:17;;;;;;;17.83;14.07;;;;;;;5.50;76.40;100372.00;2619316;54;20030;-66
2021/12/19 08:18:46;;;;;;;17.15;13.70;;;;;;;5.56;76.29;100376.78;2619032;54;20538;-66
2021/12/19 08:21:16;;;;;;;13.70;11.27;;;;;;;5.52;75.97;100372.72;2618922;54;20034;-67
2021/12/19 08:23:45;;;;;;;16.77;12.93;;;;;;;5.56;76.01;100367.13;2619270;54;20047;-65
2021/12/19 08:26:15;;;;;;;14.55;11.68;;;;;;;5.58;75.82;100375.69;2619321;54;20042;-65
2021/12/19 08:28:45;;;;;;;14.63;11.98;;;;;;;5.59;75.34;100366.03;2619120;54;20038;-65
2021/12/19 08:31:17;;;;;;;22.40;17.52;;;;;;;5.62;75.74;100366.63;2619038;54;20070;-67
2021/12/19 08:33:47;;;;;;;16.02;12.82;;;;;;;5.61;75.28;100364.97;2618726;54;20033;-66
2021/12/19 08:36:17;;;;;;;15.80;12.10;;;;;;;5.62;75.74;100361.38;2619112;54;20029;-66
2021/12/19 08:38:47;;;;;;;15.35;11.95;;;;;;;5.67;75.60;100355.75;2619109;54;20549;-67
2021/12/19 08:41:17;;;;;;;14.32;11.40;;;;;;;5.65;75.49;100355.06;2618888;54;20135;-67
2021/12/19 08:43:47;;;;;;;15.82;13.05;;;;;;;5.64;75.58;100354.22;2619028;54;20061;-65
2021/12/19 08:46:19;;;;;;;16.50;12.45;;;;;;;5.66;75.19;100341.81;2619295;54;20561;-66
2021/12/19 08:48:49;;;;;;;17.80;13.50;;;;;;;5.66;75.19;100339.19;2619012;54;20033;-66
2021/12/19 08:51:18;;;;;;;18.00;14.02;;;;;;;5.75;75.63;100342.84;2618784;54;20034;-66
2021/12/19 08:53:48;;;;;;;18.50;13.73;;;;;;;5.79;75.42;100335.56;2618868;54;20046;-66
2021/12/19 08:56:18;;;;;;;15.45;11.90;;;;;;;5.80;74.99;100338.09;2619825;54;20077;-66
2021/12/19 08:58:47;;;;;;;18.08;13.27;;;;;;;5.80;74.86;100337.25;2624695;54;20031;-66
2021/12/19 09:01:19;;;;;;;15.65;12.35;;;;;;;5.83;75.24;100337.81;2624866;54;20042;-65
2021/12/19 09:03:49;;;;;;;17.80;12.98;;;;;;;5.84;74.94;100326.38;2622272;54;20042;-66
2021/12/19 09:06:19;;;;;;;16.98;12.52;;;;;;;5.82;75.14;100325.66;2619540;54;20041;-66
2021/12/19 09:08:49;;;;;;;15.68;12.05;;;;;;;5.83;75.02;100340.44;2618290;54;20054;-66
2021/12/19 09:11:18;;;;;;;17.02;13.35;;;;;;;5.79;74.83;100327.69;2618684;54;20065;-66
2021/12/19 09:13:48;;;;;;;18.33;13.77;;;;;;;5.88;74.98;100326.97;2618360;54;20030;-65
2021/12/19 09:16:20;;;;;;;17.67;13.45;;;;;;;5.89;74.78;100320.75;2618373;47;20049;-66
2021/12/19 09:19:11;;;;;;;16.85;13.25;;;;;;;5.87;74.59;100326.09;2618555;54;20542;-66
2021/12/19 09:21:41;;;;;;;17.70;13.75;;;;;;;5.89;74.69;100333.88;2618869;54;20026;-66
2021/12/19 09:24:10;;;;;;;17.20;13.55;;;;;;;5.90;74.91;100336.34;2618869;54;20561;-66
2021/12/19 09:26:41;;;;;;;16.08;12.00;;;;;;;5.94;75.03;100332.56;2618735;54;20061;-66
2021/12/19 09:29:11;;;;;;;17.55;13.23;;;;;;;6.02;74.89;100334.56;2618695;54;20030;-65
2021/12/19 09:31:43;;;;;;;17.30;13.35;;;;;;;5.95;74.40;100330.75;2618192;54;20551;-64
2021/12/19 09:34:12;;;;;;;15.27;12.02;;;;;;;5.91;74.24;100329.31;2618671;54;20073;-65
2021/12/19 09:36:42;;;;;;;14.85;12.30;;;;;;;5.83;74.36;100335.19;2618516;54;20034;-66
2021/12/19 09:39:12;;;;;;;16.17;11.95;;;;;;;5.80;74.20;100334.63;2618647;54;20098;-65
2021/12/19 09:41:44;;;;;;;15.88;12.43;;;;;;;5.82;74.80;100333.53;2618491;54;20030;-65
2021/12/19 09:44:16;;;;;;;17.10;13.27;;;;;;;5.89;74.64;100334.69;2618695;54;20042;-65
2021/12/19 09:46:49;;;;;;;18.13;12.80;;;;;;;5.97;74.25;100334.09;2618514;54;20027;-64
2021/12/19 09:49:21;;;;;;;18.77;13.68;;;;;;;6.05;74.34;100336.09;2617940;47;20081;-65
2021/12/19 09:51:52;;;;;;;17.90;13.05;;;;;;;6.05;74.31;100321.19;2617944;54;20061;-65
2021/12/19 09:54:22;;;;;;;37.33;24.58;;;;;;;6.00;74.39;100330.38;2618743;54;20078;-64
2021/12/19 09:56:52;;;;;;;20.08;13.52;;;;;;;5.99;74.16;100326.94;2618362;54;20077;-65
2021/12/19 09:59:23;;;;;;;17.40;11.60;;;;;;;5.98;73.92;100321.81;2618272;54;20030;-66
2021/12/19 10:01:56;;;;;;;16.85;13.13;;;;;;;5.97;74.28;100322.78;2618278;54;20062;-64
2021/12/19 10:04:34;;;;;;;19.55;13.10;;;;;;;5.94;73.95;100316.81;2618553;54;20550;-65
2021/12/19 10:07:10;;;;;;;16.80;12.65;;;;;;;5.92;74.34;100320.53;2617872;48;20026;-66
2021/12/19 10:09:43;;;;;;;17.90;12.25;;;;;;;5.95;74.45;100307.97;2618447;54;20037;-67
2021/12/19 10:12:36;;;;;;;18.20;13.10;;;;;;;5.95;74.41;100307.97;2617465;47;20046;-68
2021/12/19 10:15:10;;;;;;;18.17;13.25;;;;;;;6.00;74.02;100301.50;2618426;54;20560;-67
2021/12/19 10:17:44;;;;;;;20.93;15.90;;;;;;;6.02;74.43;100291.72;2618569;54;20038;-66
2021/12/19 10:20:16;;;;;;;30.50;19.48;;;;;;;5.97;73.98;100296.53;2618048;54;20283;-65
2021/12/19 10:22:48;;;;;;;22.20;15.18;;;;;;;5.88;74.28;100291.06;2618224;54;20030;-66
2021/12/19 10:25:21;;;;;;;21.40;15.15;;;;;;;5.91;74.48;100287.31;2618634;54;20034;-66
2021/12/19 10:27:53;;;;;;;21.50;15.43;;;;;;;5.89;74.62;100290.09;2618619;54;20055;-66
2021/12/19 10:30:26;;;;;;;20.23;14.38;;;;;;;5.91;74.06;100285.53;2618715;54;20027;-66
2021/12/19 10:33:01;;;;;;;20.52;13.57;;;;;;;5.91;73.94;100275.03;2618197;54;20613;-66
2021/12/19 17:17:45;;;;;;;13.88;8.80;;;;;;;6.32;71.07;99891.75;2624915;46;20034;-71
2021/12/19 17:20:14;;;;;;;11.50;8.07;;;;;;;6.30;71.21;99893.72;2624196;54;20557;-71
2021/12/19 17:22:44;;;;;;;12.18;8.73;;;;;;;6.18;71.24;99885.13;2623625;39;20451;-71
2021/12/19 17:25:14;;;;;;;11.60;8.38;;;;;;;6.21;71.07;99887.50;2623508;54;20035;-71
2021/12/19 17:27:46;;;;;;;12.00;8.55;;;;;;;6.22;71.36;99888.31;2623809;54;20027;-71
2021/12/19 17:30:16;;;;;;;11.23;8.60;;;;;;;6.24;70.98;99891.63;2624268;54;20537;-71
2021/12/19 17:32:48;;;;;;;9.65;6.65;;;;;;;6.24;71.23;99889.00;2624267;54;20026;-71
2021/12/19 17:35:23;;;;;;;8.15;5.95;;;;;;;6.23;70.91;99889.97;2624197;54;20035;-71
2021/12/19 17:37:59;;;;;;;10.25;6.25;;;;;;;6.12;70.75;99893.53;2623870;54;20038;-72
2021/12/19 17:40:43;;;;;;;9.77;7.20;;;;;;;6.13;70.94;99887.34;2624104;54;20562;-71
2021/12/19 17:43:13;;;;;;;8.77;6.15;;;;;;;6.22;70.92;99890.94;2624184;54;20039;-70
2021/12/19 17:45:42;;;;;;;9.77;6.80;;;;;;;6.25;70.67;99888.88;2625282;39;20411;-71
2021/12/19 17:48:15;;;;;;;10.18;6.30;;;;;;;6.31;70.87;99882.22;2623835;54;20536;-69
2021/12/19 17:50:44;;;;;;;11.75;7.72;;;;;;;6.30;70.38;99878.78;2623854;54;20560;-71
2021/12/19 17:53:14;;;;;;;12.88;8.27;;;;;;;6.28;70.70;99880.69;2623981;54;20558;-71
2021/12/19 17:55:44;;;;;;;15.68;10.55;;;;;;;6.29;70.30;99876.31;2624808;39;20426;-71
2021/12/19 17:58:15;;;;;;;7.93;6.13;;;;;;;6.28;70.44;99880.69;2624584;54;20058;-72
2021/12/19 18:00:45;;;;;;;13.05;8.68;;;;;;;6.26;70.46;99872.16;2623476;46;20534;-71
2021/12/19 18:03:20;;;;;;;35.35;22.25;;;;;;;6.29;70.37;99879.75;2623794;54;20030;-71
2021/12/19 18:05:53;;;;;;;9.63;7.20;;;;;;;6.28;70.09;99866.75;2624296;47;20069;-70
2021/12/19 18:08:24;;;;;;;9.70;7.45;;;;;;;6.24;69.93;99870.59;2624674;54;20027;-71
2021/12/19 18:10:55;;;;;;;8.50;6.88;;;;;;;6.23;69.85;99871.59;2625106;54;20569;-71
2021/12/19 18:13:25;;;;;;;6.65;5.13;;;;;;;6.12;70.35;99870.78;2623657;47;20034;-71
2021/12/19 18:15:55;;;;;;;18.45;12.75;;;;;;;6.21;70.14;99874.34;2624271;54;20039;-70
2021/12/19 18:18:27;;;;;;;13.30;9.63;;;;;;;6.34;70.49;99863.56;2624815;54;20046;-71
2021/12/19 18:20:57;;;;;;;7.03;5.13;;;;;;;6.39;70.10;99875.31;2624846;54;20034;-70
2021/12/19 18:23:27;;;;;;;7.07;5.55;;;;;;;6.20;69.97;99878.78;2625086;47;20030;-71
2021/12/19 18:25:57;;;;;;;7.80;5.50;;;;;;;6.16;70.05;99868.66;2625285;54;20045;-71
2021/12/19 18:28:29;;;;;;;8.48;6.30;;;;;;;6.13;70.45;99869.78;2625415;54;20034;-71
2021/12/19 18:30:58;;;;;;;6.80;5.43;;;;;;;6.16;70.16;99876.56;2622717;54;20034;-73
2021/12/19 18:33:30;;;;;;;8.55;6.32;;;;;;;6.18;70.01;99883.34;2621856;54;20033;-71
2021/12/19 18:36:06;;;;;;;8.02;6.28;;;;;;;6.25;70.48;99882.78;2620837;47;20549;-71
2021/12/19 18:38:36;;;;;;;7.57;6.03;;;;;;;6.08;69.78;99885.13;2620953;47;20038;-71
2021/12/19 18:41:15;;;;;;;6.57;4.75;;;;;;;6.10;69.89;99885.81;2621310;54;20053;-71
2021/12/19 18:43:52;;;;;;;6.40;5.70;;;;;;;5.92;69.98;99882.22;2620501;47;20050;-71
2021/12/19 18:46:31;;;;;;;7.32;6.28;;;;;;;5.92;70.59;99880.41;2619797;54;20037;-71
2021/12/19 18:49:11;;;;;;;5.82;5.13;;;;;;;5.98;70.05;99880.84;2620559;54;20022;-70
2021/12/19 18:51:51;;;;;;;5.82;5.25;;;;;;;5.96;70.20;99878.34;2619315;54;20026;-70
2021/12/19 18:54:37;;;;;;;6.22;5.63;;;;;;;5.92;70.12;99877.81;2619039;54;20090;-71
2021/12/19 18:57:09;;;;;;;6.35;5.70;;;;;;;5.87;69.94;99876.50;2620488;54;20030;-72
2021/12/19 18:59:46;;;;;;;7.60;6.13;;;;;;;5.90;70.38;99871.81;2621891;54;20566;-71
2021/12/19 19:02:28;;;;;;;8.82;7.20;;;;;;;5.99;70.46;99859.69;2621789;54;20038;-71
2021/12/19 19:05:08;;;;;;;7.15;6.43;;;;;;;6.08;70.30;99864.13;2621987;54;20090;-71
2021/12/19 19:07:39;;;;;;;6.15;5.55;;;;;;;6.00;69.66;99871.00;2622133;54;20042;-71
2021/12/19 19:10:10;;;;;;;7.53;6.10;;;;;;;5.97;69.98;99866.06;2621759;54;20090;-71
2021/12/19 19:12:42;;;;;;;9.68;7.80;;;;;;;6.00;70.17;99866.63;2621819;54;20026;-71
2021/12/19 19:15:12;;;;;;;11.52;9.10;;;;;;;6.12;69.98;99859.41;2621768;54;20073;-71
2021/12/19 19:17:42;;;;;;;13.65;9.77;;;;;;;6.12;69.70;99849.78;2621441;46;20038;-72
2021/12/19 19:20:15;;;;;;;14.05;9.80;;;;;;;6.15;69.52;99862.59;2621998;54;20086;-71